地図

経路データ

SID SEASON NUMBER BASIN SUBBASIN NAME ISO_TIME NATURE LAT LON WMO_WIND WMO_PRES WMO_AGENCY TRACK_TYPE DIST2LAND LANDFALL IFLAG USA_AGENCY USA_ATCF_ID USA_LAT USA_LON USA_RECORD USA_STATUS USA_WIND USA_PRES USA_SSHS USA_R34_NE USA_R34_SE USA_R34_SW USA_R34_NW USA_R50_NE USA_R50_SE USA_R50_SW USA_R50_NW USA_R64_NE USA_R64_SE USA_R64_SW USA_R64_NW USA_POCI USA_ROCI USA_RMW USA_EYE TOKYO_LAT TOKYO_LON TOKYO_GRADE TOKYO_WIND TOKYO_PRES TOKYO_R50_DIR TOKYO_R50_LONG TOKYO_R50_SHORT TOKYO_R30_DIR TOKYO_R30_LONG TOKYO_R30_SHORT TOKYO_LAND CMA_LAT CMA_LON CMA_CAT CMA_WIND CMA_PRES HKO_LAT HKO_LON HKO_CAT HKO_WIND HKO_PRES NEWDELHI_LAT NEWDELHI_LON NEWDELHI_GRADE NEWDELHI_WIND NEWDELHI_PRES NEWDELHI_CI NEWDELHI_DP NEWDELHI_POCI REUNION_LAT REUNION_LON REUNION_TYPE REUNION_WIND REUNION_PRES REUNION_TNUM REUNION_CI REUNION_RMW REUNION_R34_NE REUNION_R34_SE REUNION_R34_SW REUNION_R34_NW REUNION_R50_NE REUNION_R50_SE REUNION_R50_SW REUNION_R50_NW REUNION_R64_NE REUNION_R64_SE REUNION_R64_SW REUNION_R64_NW BOM_LAT BOM_LON BOM_TYPE BOM_WIND BOM_PRES BOM_TNUM BOM_CI BOM_RMW BOM_R34_NE BOM_R34_SE BOM_R34_SW BOM_R34_NW BOM_R50_NE BOM_R50_SE BOM_R50_SW BOM_R50_NW BOM_R64_NE BOM_R64_SE BOM_R64_SW BOM_R64_NW BOM_ROCI BOM_POCI BOM_EYE BOM_POS_METHOD BOM_PRES_METHOD NADI_LAT NADI_LON NADI_CAT NADI_WIND NADI_PRES WELLINGTON_LAT WELLINGTON_LON WELLINGTON_WIND WELLINGTON_PRES DS824_LAT DS824_LON DS824_STAGE DS824_WIND DS824_PRES TD9636_LAT TD9636_LON TD9636_STAGE TD9636_WIND TD9636_PRES TD9635_LAT TD9635_LON TD9635_WIND TD9635_PRES TD9635_ROCI NEUMANN_LAT NEUMANN_LON NEUMANN_CLASS NEUMANN_WIND NEUMANN_PRES MLC_LAT MLC_LON MLC_CLASS MLC_WIND MLC_PRES USA_GUST BOM_GUST BOM_GUST_PER REUNION_GUST REUNION_GUST_PER USA_SEAHGT USA_SEARAD_NE USA_SEARAD_SE USA_SEARAD_SW USA_SEARAD_NW STORM_SPEED STORM_DIR
1982242N11191 1982 64 EP CP AKONI 1982-08-30 06:00:00 TS 11.0000 -169.000 30 hurdat_epa main 1572 1570 O_________O___ hurdat_epa CP011982 11.0000 -169.000 TD 30 -1 11.0000 -169.000 1 30 11 292
1982242N11191 1982 64 EP CP AKONI 1982-08-30 09:00:00 TS 11.2029 -169.501 main 1589 1587 P_________P___ CP011982 11.2053 -169.532 TD 30 -1 11.1935 -169.519 1 30 10 293
1982242N11191 1982 64 EP CP AKONI 1982-08-30 12:00:00 TS 11.4000 -169.960 30 hurdat_epa main 1607 1606 O_________O___ hurdat_epa CP011982 11.4000 -170.000 TD 30 -1 11.4000 -170.000 1 30 9 295
1982242N11191 1982 64 EP CP AKONI 1982-08-30 15:00:00 TS 11.5939 -170.353 main 1619 1618 P_________P___ CP011982 11.5848 -170.365 TD 32 -1 11.6300 -170.417 1 31 9 299
1982242N11191 1982 64 EP CP AKONI 1982-08-30 18:00:00 TS 11.8158 -170.718 35 hurdat_epa main 1625 1624 O_________P___ hurdat_epa CP011982 11.8000 -170.700 TS 35 0 11.8790 -170.788 1 32 9 305
1982242N11191 1982 64 EP CP AKONI 1982-08-30 21:00:00 TS 12.0956 -171.093 main 1632 1632 P_________P___ CP011982 12.0849 -171.078 TS 35 0 12.1385 -171.139 1 33 10 307
1982242N11191 1982 64 EP CP AKONI 1982-08-31 00:00:00 TS 12.4000 -171.500 35 hurdat_epa main 1641 1641 O_________O___ hurdat_epa CP011982 12.4000 -171.500 TS 35 0 12.4000 -171.500 2 35 11 305
1982242N11191 1982 64 EP CP AKONI 1982-08-31 03:00:00 TS 12.7070 -171.995 main 1659 1659 P_________P___ CP011982 12.7151 -172.007 TS 35 0 12.6746 -171.947 2 35 11 302
1982242N11191 1982 64 EP CP AKONI 1982-08-31 06:00:00 TS 12.9891 -172.480 35 hurdat_epa main 1680 1680 O_________P___ hurdat_epa CP011982 13.0000 -172.500 TS 35 0 12.9454 -172.402 2 35 10 301
1982242N11191 1982 64 EP CP AKONI 1982-08-31 09:00:00 TS 13.2135 -172.863 main 1700 1693 P_________P___ CP011982 13.2148 -172.865 TS 35 0 13.1934 -172.831 2 35 8 300
1982242N11191 1982 64 EP CP AKONI 1982-08-31 12:00:00 TS 13.4000 -173.200 35 hurdat_epa main 1713 1713 O_________O___ hurdat_epa CP011982 13.4000 -173.200 TS 35 0 13.4000 -173.200 2 35 8 298
1982242N11191 1982 64 EP CP AKONI 1982-08-31 15:00:00 TS 13.5944 -173.587 main 1735 1735 P_________P___ CP011982 13.6302 -173.652 TS 40 0 13.5591 -173.498 2 37 7 297
1982242N11191 1982 64 EP CP AKONI 1982-08-31 18:00:00 TS 13.7349 -173.886 45 hurdat_epa main 1756 1749 O_________P___ hurdat_epa CP011982 13.8000 -174.000 TS 45 0 13.6746 -173.728 2 40 4 296
1982242N11191 1982 64 EP CP AKONI 1982-08-31 21:00:00 TS 13.7800 -173.985 main 1758 1758 P_________P___ CP011982 13.8299 -174.060 TS 45 0 13.7529 -173.894 2 42 1 292
1982242N11191 1982 64 EP CP AKONI 1982-09-01 00:00:00 TS 13.7800 -174.000 45 hurdat_epa main 1758 1758 O_________O___ hurdat_epa CP011982 13.8000 -174.000 TS 45 0 13.8000 -174.000 2 45 0 292
1982242N11191 1982 64 EP CP AKONI 1982-09-01 03:00:00 TS 13.7947 -174.030 main 1758 1758 P_________P___ CP011982 13.8000 -174.000 TS 45 0 13.8237 -173.928 2 45 1 296
1982242N11191 1982 64 EP CP AKONI 1982-09-01 06:00:00 TS 13.8042 -174.064 45 hurdat_epa main 1767 1758 O_________P___ hurdat_epa CP011982 13.8000 -174.000 TS 45 0 13.8208 -173.820 2 45 0 281
1982242N11191 1982 64 EP CP AKONI 1982-09-01 09:00:00 TS 13.8023 -174.059 main 1767 1767 P_________P___ CP011982 13.7846 -173.888 TS 45 0 13.8074 -173.803 2 45 2 275
1982242N11191 1982 64 EP CP AKONI 1982-09-01 12:00:00 TS 13.8200 -174.240 45 hurdat_epa main 1776 1776 O_________O___ hurdat_epa CP011982 13.8000 -174.000 TS 45 0 13.8000 -174.000 2 45 7 278
1982242N11191 1982 64 EP CP AKONI 1982-09-01 15:00:00 TS 13.9056 -174.805 main 1825 1825 P_________P___ CP011982 13.9078 -174.622 TS 40 0 13.8400 -174.594 2 41 13 277
1982242N11191 1982 64 EP CP AKONI 1982-09-01 18:00:00 TS 13.9766 -175.581 35 hurdat_epa main 1893 1893 O_________P___ hurdat_epa CP011982 14.0000 -175.500 TS 35 0 13.8828 -175.404 2 37 15 272
1982242N11191 1982 64 EP CP AKONI 1982-09-01 21:00:00 TS 13.9643 -176.387 main 1968 1968 P_________P___ CP011982 13.9800 -176.350 TS 32 -1 13.9088 -176.313 2 33 16 267
1982242N11191 1982 64 EP CP AKONI 1982-09-02 00:00:00 TS 13.9000 -177.200 30 hurdat_epa main 2049 2049 O_________O___ hurdat_epa CP011982 13.9000 -177.200 TD 30 -1 13.9000 -177.200 1 30 15 264
1982242N11191 1982 64 EP CP AKONI 1982-09-02 03:00:00 TS 13.8148 -177.949 main 2121 2121 P_________P___ CP011982 13.8074 -177.995 TD 30 -1 13.8447 -177.973 1 28 14 262
1982242N11191 1982 64 EP CP AKONI 1982-09-02 06:00:00 TS 13.7102 -178.628 30 hurdat_epa main 2193 2193 O_________P___ hurdat_epa CP011982 13.7000 -178.700 TD 30 -1 13.7512 -178.640 1 27 13 260
1982242N11191 1982 64 EP CP AKONI 1982-09-02 09:00:00 TS 13.6046 -179.235 main 2255 2255 P_________P___ CP011982 13.5976 -179.285 TD 27 -1 13.6322 -179.238 1 26 12 260
1982242N11191 1982 64 EP CP AKONI 1982-09-02 12:00:00 TS 13.5000 -179.800 25 hurdat_epa main 2318 O_________O___ hurdat_epa CP011982 13.5000 -179.800 TD 25 -1 13.5000 -179.800 1 25 11 259

IBTrACS Databaseについて

本データベースは、米国NOAAが公開する1842年以降の世界の熱帯低気圧のベストトラックデータアーカイブInternational Best Track Archive for Climate Stewardship (IBTrACS)を、ウェブで閲覧しやすい形式に変換したものです。

最終更新日:2021-10-08